Terminal Aerodrome Forecast
Issued by NWS Tulsa, OK

Home | Current Version | Previous Version | Text Only | Print | Product List | Glossary On
Versions: 1 2 3 4 5 6 7 8 9 10 11 12 13 14 15 16
272
FTUS44 KTSA 211739
TAFTUL
TAF
KTUL 211739Z 2118/2218 00000KT P6SM SCT100 OVC130
     FM212200 15005KT P6SM VCSH BKN050
     FM220300 11005KT 6SM -SHRA BKN040
      TEMPO 2203/2207 3SM -SHRA BR BKN025
     FM220700 05005KT 3SM RA BR OVC012
     FM221400 35013KT P6SM OVC015 PROB30 2214/2218 6SM -RA BR=

USA.gov is the U.S. government's official web portal to all federal, state and local government web resources and services.